createdAt,value
2022-09-05T00:02:07.043Z,73.10
2022-09-05T00:04:33.859Z,74.09
2022-09-05T00:06:40.169Z,74.72
2022-09-05T00:08:51.501Z,75.86
2022-09-05T00:11:41.202Z,76.01
2022-09-05T00:13:40.956Z,76.79
2022-09-05T00:15:59.563Z,76.88
2022-09-05T00:22:49.922Z,76.68
2022-09-05T00:24:22.579Z,76.39
2022-09-05T00:24:42.788Z,76.02
2022-09-05T00:26:14.045Z,76.16
2022-09-05T00:28:36.465Z,76.40
2022-09-05T00:31:50.628Z,75.71
2022-09-05T00:33:36.527Z,74.47
2022-09-05T00:36:01.089Z,75.18
2022-09-05T00:38:20.358Z,75.24
2022-09-05T00:40:46.431Z,74.81
2022-09-05T00:42:52.492Z,74.51
2022-09-05T00:44:59.673Z,74.78
2022-09-05T00:47:31.630Z,74.31
2022-09-05T00:49:41.188Z,73.61
2022-09-05T00:52:04.993Z,73.28
2022-09-05T00:54:40.261Z,72.88
2022-09-05T00:57:35.915Z,72.57
2022-09-05T01:00:05.054Z,72.27
2022-09-05T01:02:28.662Z,72.16
2022-09-05T01:05:13.967Z,71.95
2022-09-05T01:07:50.205Z,71.81
2022-09-05T01:10:35.980Z,71.48
2022-09-05T01:12:56.716Z,71.92
2022-09-05T01:15:13.538Z,71.63
2022-09-05T01:17:21.196Z,72.16
2022-09-05T01:19:31.020Z,71.84
2022-09-05T01:21:53.901Z,71.66
2022-09-05T01:24:06.602Z,71.42
2022-09-05T01:26:34.696Z,71.25
2022-09-05T01:29:16.759Z,71.14
2022-09-05T01:31:46.372Z,70.67
2022-09-05T01:34:13.054Z,71.20
2022-09-05T01:36:27.322Z,71.19
2022-09-05T01:38:33.261Z,71.15
2022-09-05T01:40:43.959Z,71.14
2022-09-05T01:43:14.808Z,71.12
2022-09-05T01:45:38.703Z,71.29
2022-09-05T01:48:11.047Z,71.19
2022-09-05T01:50:41.353Z,70.74
2022-09-05T01:52:58.937Z,70.59
2022-09-05T01:55:19.520Z,70.54
2022-09-05T01:57:30.607Z,70.41
2022-09-05T01:59:56.899Z,70.57
2022-09-05T02:02:16.611Z,70.68
2022-09-05T02:04:38.096Z,70.24
2022-09-05T02:07:19.854Z,70.07
2022-09-05T02:09:42.425Z,70.32
2022-09-05T02:11:58.099Z,70.47
2022-09-05T02:14:05.709Z,70.35
2022-09-05T02:16:38.248Z,69.78
2022-09-05T02:18:59.056Z,69.46
2022-09-05T02:21:08.490Z,69.45
2022-09-05T02:23:45.126Z,69.64
2022-09-05T02:26:02.087Z,69.74
2022-09-05T02:28:17.965Z,69.66
2022-09-05T02:30:23.316Z,69.65
2022-09-05T02:32:43.099Z,69.55
2022-09-05T02:34:55.405Z,69.39
2022-09-05T02:37:21.485Z,69.27
2022-09-05T02:45:04.214Z,68.94
2022-09-05T02:45:08.517Z,68.73
2022-09-05T02:45:27.321Z,68.51
2022-09-05T02:47:32.962Z,68.88
2022-09-05T02:53:45.544Z,68.80
2022-09-05T02:57:27.164Z,68.82
2022-09-05T02:57:42.664Z,68.93
2022-09-05T02:58:04.856Z,68.93
2022-09-05T03:00:06.830Z,67.15
2022-09-05T03:02:27.189Z,68.11
2022-09-05T03:04:35.042Z,67.73
2022-09-05T03:06:50.112Z,68.09
2022-09-05T03:09:16.985Z,68.05
2022-09-05T03:11:37.053Z,67.96
2022-09-05T03:14:00.659Z,68.31
2022-09-05T03:16:19.227Z,68.21
2022-09-05T03:18:52.052Z,68.45
2022-09-05T03:20:56.466Z,68.47
2022-09-05T03:23:35.989Z,67.99
2022-09-05T03:26:02.049Z,68.20
2022-09-05T03:28:18.819Z,68.27
2022-09-05T03:30:22.485Z,68.42
2022-09-05T03:32:29.043Z,68.39
2022-09-05T03:34:38.101Z,67.99
2022-09-05T03:36:58.095Z,67.10
2022-09-05T03:39:56.654Z,67.59
2022-09-05T03:42:20.925Z,67.20
2022-09-05T03:44:44.070Z,66.78
2022-09-05T03:47:17.071Z,67.56
2022-09-05T03:52:19.986Z,67.93
2022-09-05T03:57:10.565Z,67.31
2022-09-05T03:57:18.759Z,67.74
2022-09-05T03:57:54.068Z,68.01
2022-09-05T04:00:08.592Z,68.01
2022-09-05T04:07:10.052Z,68.32
2022-09-05T04:08:06.806Z,67.66
2022-09-05T04:08:16.719Z,67.28
2022-09-05T04:09:56.814Z,67.00
2022-09-05T04:12:03.484Z,67.11
2022-09-05T04:14:15.140Z,66.91
2022-09-05T04:16:29.917Z,68.14
2022-09-05T04:18:41.619Z,68.68
2022-09-05T04:20:51.839Z,69.22
2022-09-05T04:23:14.238Z,69.42
2022-09-05T04:25:29.907Z,69.54
2022-09-05T04:28:10.377Z,69.78
2022-09-05T04:30:39.347Z,69.54
2022-09-05T04:32:59.937Z,69.41
2022-09-05T04:35:27.768Z,69.07
2022-09-05T04:37:55.200Z,68.69
2022-09-05T04:39:56.977Z,68.74
2022-09-05T04:42:04.876Z,69.34
2022-09-05T04:44:18.049Z,69.67
2022-09-05T04:46:48.563Z,69.73
2022-09-05T04:49:10.838Z,69.81
2022-09-05T04:51:31.865Z,69.38
2022-09-05T04:54:08.088Z,69.24
2022-09-05T04:56:15.316Z,69.15
2022-09-05T04:59:29.328Z,69.37
2022-09-05T05:06:00.647Z,69.86
2022-09-05T05:06:16.673Z,69.41
2022-09-05T05:08:54.045Z,68.46
2022-09-05T05:15:00.074Z,68.23
2022-09-05T05:18:00.728Z,67.85
2022-09-05T05:18:13.402Z,67.38
2022-09-05T05:18:49.183Z,67.13
2022-09-05T05:20:53.498Z,67.08
2022-09-05T05:23:08.015Z,66.94
2022-09-05T05:25:11.592Z,66.46
2022-09-05T05:27:16.303Z,65.80
2022-09-05T05:29:32.917Z,65.82
2022-09-05T05:31:41.557Z,65.73
2022-09-05T05:33:47.031Z,65.86
2022-09-05T05:35:50.127Z,65.77
2022-09-05T05:38:16.870Z,65.50
2022-09-05T05:40:28.758Z,65.39
2022-09-05T05:42:32.314Z,65.53
2022-09-05T05:44:35.213Z,65.70
2022-09-05T05:46:39.893Z,65.40
2022-09-05T05:48:44.134Z,64.77
2022-09-05T05:51:03.286Z,64.86
2022-09-05T05:53:42.749Z,64.37
2022-09-05T05:56:01.284Z,64.75
2022-09-05T05:58:15.805Z,64.94
2022-09-05T06:00:28.034Z,64.71
2022-09-05T06:03:24.942Z,64.16
2022-09-05T06:06:13.637Z,64.67
2022-09-05T06:11:20.511Z,64.48
2022-09-05T06:15:02.197Z,64.78
2022-09-05T06:15:02.948Z,64.30
2022-09-05T06:16:18.822Z,63.32
2022-09-05T06:18:57.402Z,62.52
2022-09-05T06:22:10.090Z,62.22
2022-09-05T06:23:51.257Z,61.53
2022-09-05T06:25:55.613Z,61.48
2022-09-05T06:28:17.905Z,60.87
2022-09-05T06:30:22.275Z,60.44
2022-09-05T06:32:29.926Z,60.18
2022-09-05T06:34:43.895Z,59.37
2022-09-05T06:36:57.840Z,59.17
2022-09-05T06:39:28.462Z,59.00
2022-09-05T06:42:06.066Z,57.67
2022-09-05T06:44:15.288Z,58.25
2022-09-05T06:47:22.711Z,57.76
2022-09-05T06:49:30.160Z,57.91
2022-09-05T06:51:44.887Z,58.20
2022-09-05T06:54:18.364Z,58.96
2022-09-05T06:56:38.682Z,58.87
2022-09-05T06:59:11.149Z,58.50
2022-09-05T07:01:14.264Z,58.75
2022-09-05T07:03:33.404Z,59.65
2022-09-05T07:05:58.621Z,59.84
2022-09-05T07:08:26.732Z,59.83
2022-09-05T07:10:39.784Z,60.05
2022-09-05T07:12:54.072Z,60.32
2022-09-05T07:15:02.198Z,59.21
2022-09-05T07:17:53.512Z,59.21
2022-09-05T07:20:01.016Z,59.76
2022-09-05T07:22:54.871Z,59.24
2022-09-05T07:24:56.935Z,59.07
2022-09-05T07:26:59.744Z,58.42
2022-09-05T07:29:06.148Z,58.01
2022-09-05T07:31:27.518Z,58.06
2022-09-05T07:33:40.498Z,57.43
2022-09-05T07:35:43.473Z,57.42
2022-09-05T07:37:46.176Z,58.80
2022-09-05T07:39:54.579Z,58.39
2022-09-05T07:41:58.391Z,58.28
2022-09-05T07:44:06.574Z,58.59
2022-09-05T07:46:15.239Z,58.87
2022-09-05T07:48:23.773Z,58.98
2022-09-05T07:56:06.805Z,58.81
2022-09-05T07:57:00.801Z,58.84
2022-09-05T07:57:01.854Z,58.84
2022-09-05T07:58:02.499Z,58.20
2022-09-05T08:00:05.255Z,57.97
2022-09-05T08:02:10.981Z,57.56
2022-09-05T08:04:24.272Z,56.71
2022-09-05T08:07:45.496Z,55.32
2022-09-05T08:09:21.423Z,55.51
2022-09-05T08:11:23.967Z,54.47
2022-09-05T08:14:38.542Z,53.71
2022-09-05T08:16:31.358Z,54.28
2022-09-05T08:18:42.669Z,53.48
2022-09-05T08:20:56.663Z,52.65
2022-09-05T08:23:36.019Z,51.29
2022-09-05T08:25:57.403Z,51.58
2022-09-05T08:28:00.952Z,52.56
2022-09-05T08:30:24.991Z,52.22
2022-09-05T08:32:50.129Z,51.03
2022-09-05T08:34:55.199Z,51.08
2022-09-05T08:36:59.682Z,51.11
2022-09-05T08:39:04.013Z,52.01
2022-09-05T08:41:15.092Z,52.55
2022-09-05T08:46:20.001Z,52.65
2022-09-05T08:46:40.345Z,52.89
2022-09-05T08:48:33.695Z,52.43
2022-09-05T08:50:45.221Z,52.21
2022-09-05T08:53:02.816Z,52.56
2022-09-05T08:55:44.987Z,53.05
2022-09-05T08:57:49.081Z,52.24
2022-09-05T09:00:20.234Z,51.73
2022-09-05T09:02:47.332Z,50.44
2022-09-05T09:05:01.587Z,49.59
2022-09-05T09:07:50.809Z,50.51
2022-09-05T09:09:43.057Z,49.97
2022-09-05T09:11:51.851Z,50.78
2022-09-05T09:13:57.016Z,50.24
2022-09-05T09:16:10.994Z,48.42
2022-09-05T09:18:16.036Z,47.81
2022-09-05T09:20:33.792Z,48.58
2022-09-05T09:22:54.160Z,48.85
2022-09-05T09:25:15.922Z,49.54
2022-09-05T09:28:48.034Z,50.51
2022-09-05T09:30:06.145Z,50.65
2022-09-05T09:32:13.454Z,51.23
2022-09-05T09:34:27.298Z,51.64
2022-09-05T09:36:59.471Z,50.42
2022-09-05T09:39:37.697Z,49.60
2022-09-05T09:42:03.790Z,47.51
2022-09-05T09:44:41.754Z,48.67
2022-09-05T09:46:45.632Z,47.68
2022-09-05T09:48:56.424Z,47.14
2022-09-05T09:50:58.932Z,46.83
2022-09-05T09:53:01.797Z,47.11
2022-09-05T09:55:39.877Z,46.65
2022-09-05T09:58:07.302Z,47.18
2022-09-05T10:00:11.719Z,46.23
2022-09-05T10:05:33.887Z,46.63
2022-09-05T10:10:50.596Z,46.62
2022-09-05T10:10:54.226Z,45.07
2022-09-05T10:11:18.775Z,44.55
2022-09-05T10:13:46.849Z,44.51
2022-09-05T10:16:16.295Z,43.83
2022-09-05T10:18:25.161Z,44.16
2022-09-05T10:20:42.070Z,44.42
2022-09-05T10:22:52.044Z,44.08
2022-09-05T10:25:19.106Z,44.24
2022-09-05T10:27:45.669Z,45.91
2022-09-05T10:30:54.456Z,45.23
2022-09-05T10:35:18.358Z,45.43
2022-09-05T10:35:29.631Z,45.56
2022-09-05T10:37:55.388Z,43.44
2022-09-05T10:40:00.880Z,43.25
2022-09-05T10:42:06.995Z,41.69
2022-09-05T10:44:12.118Z,42.76
2022-09-05T10:46:51.200Z,42.89
2022-09-05T10:48:55.653Z,42.96
2022-09-05T10:51:04.498Z,43.72
2022-09-05T10:53:39.234Z,42.82
2022-09-05T10:56:01.247Z,43.53
2022-09-05T10:59:38.749Z,44.61
2022-09-05T11:02:30.353Z,46.09
2022-09-05T11:03:52.899Z,46.62
2022-09-05T11:05:58.046Z,46.42
2022-09-05T11:08:08.431Z,46.33
2022-09-05T11:10:24.787Z,46.20
2022-09-05T11:12:44.517Z,46.72
2022-09-05T11:14:55.198Z,46.68
2022-09-05T11:17:25.454Z,46.16
2022-09-05T11:19:43.251Z,46.16
2022-09-05T11:22:07.451Z,45.02
2022-09-05T11:24:58.573Z,44.93
2022-09-05T11:27:24.351Z,44.10
2022-09-05T11:29:42.863Z,44.43
2022-09-05T11:36:30.944Z,44.12
2022-09-05T11:39:45.993Z,45.41
2022-09-05T11:39:55.070Z,45.38
2022-09-05T11:40:29.214Z,44.58
2022-09-05T11:42:49.149Z,44.00
2022-09-05T11:45:20.944Z,42.58
2022-09-05T11:47:53.427Z,43.04
2022-09-05T11:50:00.996Z,41.65
2022-09-05T11:52:08.512Z,42.49
2022-09-05T11:54:26.699Z,42.89
2022-09-05T11:57:32.108Z,43.20
2022-09-05T12:00:18.560Z,43.71
2022-09-05T12:02:26.436Z,44.33
2022-09-05T12:05:48.267Z,43.61
2022-09-05T12:08:08.646Z,44.53
2022-09-05T12:10:46.838Z,44.83
2022-09-05T12:13:31.905Z,44.33
2022-09-05T12:15:34.502Z,43.39
2022-09-05T12:17:36.218Z,43.24
2022-09-05T12:19:47.317Z,43.77
2022-09-05T12:22:16.165Z,43.78
2022-09-05T12:25:15.289Z,44.11
2022-09-05T12:27:39.894Z,44.00
2022-09-05T12:29:27.741Z,44.00
2022-09-05T12:33:14.819Z,44.25
2022-09-05T12:36:04.661Z,43.75
2022-09-05T12:40:35.699Z,44.91
2022-09-05T12:40:58.518Z,44.37
2022-09-05T12:42:21.728Z,44.05
2022-09-05T12:44:44.394Z,44.21
2022-09-05T12:47:16.703Z,44.01
2022-09-05T12:49:39.313Z,42.95
2022-09-05T12:52:03.827Z,43.11
2022-09-05T12:54:32.863Z,42.71
2022-09-05T13:00:24.206Z,43.13
2022-09-05T13:03:01.266Z,42.69
2022-09-05T13:03:13.411Z,43.02
2022-09-05T13:04:47.347Z,42.32
2022-09-05T13:07:01.928Z,42.08
2022-09-05T13:09:16.925Z,41.47
2022-09-05T13:14:49.526Z,41.65
2022-09-05T13:15:01.997Z,41.99
2022-09-05T13:16:29.109Z,41.33
2022-09-05T13:18:39.272Z,41.87
2022-09-05T13:20:50.257Z,42.16
2022-09-05T13:22:53.364Z,42.53
2022-09-05T13:25:10.182Z,43.17
2022-09-05T13:27:17.700Z,42.65
2022-09-05T13:29:22.046Z,42.98
2022-09-05T13:37:55.920Z,42.98
2022-09-05T13:38:15.467Z,42.53
2022-09-05T13:38:17.483Z,42.24
2022-09-05T13:39:05.364Z,41.69
2022-09-05T13:41:27.728Z,41.19
2022-09-05T13:43:33.277Z,41.31
2022-09-05T13:45:48.746Z,41.80
2022-09-05T13:48:20.008Z,42.08
2022-09-05T13:50:34.508Z,41.96
2022-09-05T13:52:40.115Z,42.17
2022-09-05T13:54:51.087Z,42.78
2022-09-05T13:57:31.894Z,42.47
2022-09-05T13:59:41.168Z,42.62
2022-09-05T14:02:24.912Z,43.09
2022-09-05T14:05:19.442Z,41.95
2022-09-05T14:07:44.664Z,42.32
2022-09-05T14:09:49.467Z,42.48
2022-09-05T14:12:04.248Z,41.93
2022-09-05T14:15:08.342Z,41.74
2022-09-05T14:19:52.943Z,41.41
2022-09-05T14:21:54.768Z,41.90
2022-09-05T14:24:03.266Z,42.50
2022-09-05T14:26:15.030Z,42.38
2022-09-05T14:28:40.907Z,42.35
2022-09-05T14:32:09.316Z,42.38
2022-09-05T14:37:42.039Z,41.49
2022-09-05T14:37:50.481Z,41.76
2022-09-05T14:38:21.817Z,41.76
2022-09-05T14:40:57.652Z,41.99
2022-09-05T14:43:30.938Z,42.51
2022-09-05T14:45:42.800Z,41.70
2022-09-05T14:47:50.725Z,42.83
2022-09-05T14:50:21.196Z,41.76
2022-09-05T14:52:29.429Z,42.22
2022-09-05T14:59:51.106Z,42.67
2022-09-05T15:02:49.219Z,42.67
2022-09-05T15:02:58.391Z,42.17
2022-09-05T15:04:48.298Z,42.42
2022-09-05T15:07:24.962Z,42.27
2022-09-05T15:12:17.768Z,42.79
2022-09-05T15:12:24.308Z,43.12
2022-09-05T15:14:11.355Z,42.91
2022-09-05T15:16:14.288Z,42.99
2022-09-05T15:18:22.336Z,43.39
2022-09-05T15:20:32.339Z,44.31
2022-09-05T15:22:36.973Z,44.53
2022-09-05T15:24:38.617Z,44.14
2022-09-05T15:26:56.547Z,43.94
2022-09-05T15:29:13.872Z,44.54
2022-09-05T15:31:19.069Z,44.42
2022-09-05T15:33:25.302Z,44.77
2022-09-05T15:35:37.118Z,44.61
2022-09-05T15:37:41.496Z,44.50
2022-09-05T15:39:43.314Z,44.85
2022-09-05T15:41:45.022Z,44.38
2022-09-05T15:44:09.585Z,43.60
2022-09-05T15:46:12.643Z,44.09
2022-09-05T15:48:18.494Z,44.27
2022-09-05T15:50:26.366Z,44.66
2022-09-05T15:52:31.681Z,43.88
2022-09-05T15:54:40.426Z,44.82
2022-09-05T15:56:47.531Z,44.47
2022-09-05T15:58:54.839Z,44.37
2022-09-05T16:00:57.148Z,43.97
2022-09-05T16:04:36.453Z,44.58
2022-09-05T16:10:30.438Z,44.54
2022-09-05T16:10:34.562Z,44.35
2022-09-05T16:11:10.048Z,44.31
2022-09-05T16:13:06.636Z,44.45
2022-09-05T16:18:53.055Z,44.49
2022-09-05T16:23:19.710Z,44.81
2022-09-05T16:23:26.563Z,45.61
2022-09-05T16:23:34.524Z,45.25
2022-09-05T16:25:22.806Z,45.56
2022-09-05T16:27:58.882Z,45.80
2022-09-05T16:30:01.057Z,46.28
2022-09-05T16:32:02.803Z,46.67
2022-09-05T16:34:11.704Z,48.06
2022-09-05T16:36:31.036Z,48.23
2022-09-05T16:38:50.009Z,48.32
2022-09-05T16:40:55.545Z,48.48
2022-09-05T16:43:27.108Z,48.70
2022-09-05T16:45:40.142Z,48.25
2022-09-05T16:48:09.944Z,48.99
2022-09-05T16:50:46.748Z,48.87
2022-09-05T16:52:53.538Z,49.19
2022-09-05T16:55:29.348Z,49.33
2022-09-05T16:57:34.471Z,48.99
2022-09-05T16:59:39.004Z,49.61
2022-09-05T17:02:06.129Z,49.61
2022-09-05T17:04:20.793Z,49.67
2022-09-05T17:07:07.327Z,48.96
2022-09-05T17:09:25.618Z,48.82
2022-09-05T17:11:29.600Z,49.33
2022-09-05T17:13:52.032Z,50.28
2022-09-05T17:15:54.414Z,49.87
2022-09-05T17:18:22.228Z,50.04
2022-09-05T17:20:28.593Z,50.07
2022-09-05T17:29:03.288Z,50.12
2022-09-05T17:29:18.516Z,49.90
2022-09-05T17:29:28.159Z,50.68
2022-09-05T17:32:31.738Z,50.46
2022-09-05T17:34:52.086Z,50.95
2022-09-05T17:37:41.641Z,51.33
2022-09-05T17:39:55.810Z,50.51
2022-09-05T17:42:28.070Z,50.74
2022-09-05T17:44:45.946Z,50.44
2022-09-05T17:47:35.430Z,51.17
2022-09-05T17:49:46.480Z,51.29
2022-09-05T17:51:51.940Z,51.42
2022-09-05T17:53:59.916Z,51.93
2022-09-05T17:56:01.513Z,52.06
2022-09-05T17:58:49.320Z,51.67
2022-09-05T18:00:51.477Z,51.98
2022-09-05T18:02:56.485Z,51.84
2022-09-05T18:04:58.588Z,52.13
2022-09-05T18:07:01.191Z,52.21
2022-09-05T18:09:12.277Z,52.16
2022-09-05T18:11:26.268Z,52.26
2022-09-05T18:13:54.880Z,52.28
2022-09-05T18:15:56.737Z,52.18
2022-09-05T18:18:02.216Z,52.28
2022-09-05T18:20:42.046Z,52.18
2022-09-05T18:22:47.742Z,52.28
2022-09-05T18:30:11.521Z,52.72
2022-09-05T18:32:13.278Z,52.84
2022-09-05T18:34:20.626Z,53.11
2022-09-05T18:36:25.731Z,52.97
2022-09-05T18:38:51.470Z,53.26
2022-09-05T18:41:08.004Z,53.59
2022-09-05T18:43:19.357Z,53.51
2022-09-05T18:45:28.638Z,53.22
2022-09-05T18:47:57.263Z,53.61
2022-09-05T18:50:26.723Z,53.37
2022-09-05T18:52:25.978Z,53.64
2022-09-05T18:54:29.695Z,53.38
2022-09-05T18:57:12.041Z,53.70
2022-09-05T18:59:17.024Z,53.85
2022-09-05T19:01:34.827Z,53.85
2022-09-05T19:03:36.864Z,53.74
2022-09-05T19:05:59.214Z,53.77
2022-09-05T19:08:29.210Z,54.09
2022-09-05T19:10:36.917Z,53.82
2022-09-05T19:12:53.524Z,53.61
2022-09-05T19:15:06.791Z,53.84
2022-09-05T19:17:11.514Z,53.78
2022-09-05T19:19:24.466Z,53.74
2022-09-05T19:21:28.017Z,53.89
2022-09-05T19:23:57.073Z,53.83
2022-09-05T19:26:09.946Z,53.79
2022-09-05T19:36:49.257Z,53.96
2022-09-05T19:36:53.155Z,53.60
2022-09-05T19:37:06.085Z,54.60
2022-09-05T19:37:22.492Z,54.06
2022-09-05T19:38:12.728Z,54.61
2022-09-05T19:46:21.100Z,54.87
2022-09-05T19:47:40.055Z,55.26
2022-09-05T19:47:40.244Z,55.25
2022-09-05T19:50:05.962Z,54.98
2022-09-05T19:52:17.301Z,54.95
2022-09-05T19:54:28.538Z,54.65
2022-09-05T19:56:37.961Z,55.01
2022-09-05T19:58:42.545Z,55.06
2022-09-05T20:01:00.774Z,55.10
2022-09-05T20:03:03.876Z,54.84
2022-09-05T20:05:08.345Z,55.30
2022-09-05T20:07:15.748Z,55.13
2022-09-05T20:09:23.029Z,54.83
2022-09-05T20:11:45.741Z,55.02
2022-09-05T20:13:48.228Z,54.89
2022-09-05T20:15:51.714Z,54.98
2022-09-05T20:17:55.347Z,54.95
2022-09-05T20:20:16.965Z,54.58
2022-09-05T20:22:49.575Z,54.79
2022-09-05T20:24:49.740Z,54.62
2022-09-05T20:26:51.822Z,55.46
2022-09-05T20:29:01.733Z,55.76
2022-09-05T20:31:08.854Z,56.15
2022-09-05T20:33:16.976Z,56.28
2022-09-05T20:37:00.996Z,56.39
2022-09-05T20:43:18.457Z,56.86
2022-09-05T20:43:20.651Z,56.52
2022-09-05T20:43:26.647Z,56.60
2022-09-05T20:45:01.368Z,56.78
2022-09-05T20:54:05.337Z,56.73
2022-09-05T20:54:10.296Z,56.63
2022-09-05T20:54:27.072Z,56.79
2022-09-05T20:54:34.639Z,56.78
2022-09-05T20:56:48.332Z,56.90
2022-09-05T20:58:58.742Z,56.76
2022-09-05T21:01:32.585Z,57.73
2022-09-05T21:03:40.007Z,58.85
2022-09-05T21:05:42.575Z,60.51
2022-09-05T21:07:46.226Z,61.42
2022-09-05T21:09:59.838Z,61.97
2022-09-05T21:12:09.118Z,62.50
2022-09-05T21:14:21.339Z,62.79
2022-09-05T21:16:28.552Z,62.71
2022-09-05T21:18:33.784Z,62.18
2022-09-05T21:20:36.458Z,62.24
2022-09-05T21:22:43.711Z,62.72
2022-09-05T21:24:47.356Z,62.90
2022-09-05T21:26:50.035Z,62.51
2022-09-05T21:29:13.261Z,61.82
2022-09-05T21:31:18.084Z,61.45
2022-09-05T21:33:24.188Z,60.90
2022-09-05T21:35:42.247Z,60.55
2022-09-05T21:37:45.658Z,60.21
2022-09-05T21:39:58.479Z,60.22
2022-09-05T21:42:06.433Z,59.98
2022-09-05T21:47:35.296Z,59.75
2022-09-05T21:47:39.458Z,59.56
2022-09-05T21:49:12.111Z,59.83
2022-09-05T21:51:14.130Z,59.65
2022-09-05T21:57:08.244Z,59.60
2022-09-05T21:59:14.688Z,59.63
2022-09-05T21:59:29.711Z,59.65
2022-09-05T22:00:35.616Z,59.84
2022-09-05T22:02:37.687Z,59.51
2022-09-05T22:04:41.465Z,59.59
2022-09-05T22:06:48.688Z,59.63
2022-09-05T22:09:09.916Z,59.90
2022-09-05T22:11:13.748Z,59.92
2022-09-05T22:13:15.772Z,59.77
2022-09-05T22:15:27.494Z,59.65
2022-09-05T22:17:30.988Z,59.51
2022-09-05T22:19:37.128Z,60.00
2022-09-05T22:21:40.380Z,59.85
2022-09-05T22:23:48.175Z,59.92
2022-09-05T22:25:49.849Z,60.10
2022-09-05T22:27:51.754Z,60.00
2022-09-05T22:29:53.528Z,60.14
2022-09-05T22:31:55.419Z,60.38
2022-09-05T22:33:58.371Z,60.92
2022-09-05T22:36:00.197Z,60.94
2022-09-05T22:38:09.641Z,60.93
2022-09-05T22:40:13.033Z,61.17
2022-09-05T22:42:14.849Z,61.06
2022-09-05T22:44:16.483Z,61.11
2022-09-05T22:46:18.130Z,61.33
2022-09-05T22:48:19.957Z,61.23
2022-09-05T22:50:21.776Z,61.26
2022-09-05T22:52:23.471Z,61.06
2022-09-05T22:54:25.320Z,61.06
2022-09-05T22:56:32.069Z,61.07
2022-09-05T22:58:41.592Z,61.12
2022-09-05T23:00:44.992Z,61.09
2022-09-05T23:02:51.622Z,61.23
2022-09-05T23:04:54.094Z,61.64
2022-09-05T23:06:56.149Z,61.76
2022-09-05T23:08:57.903Z,61.98
2022-09-05T23:11:06.939Z,62.40
2022-09-05T23:13:09.930Z,62.68
2022-09-05T23:15:11.835Z,64.32
2022-09-05T23:17:13.690Z,65.32
2022-09-05T23:19:15.369Z,65.97
2022-09-05T23:21:17.037Z,65.70
2022-09-05T23:23:18.758Z,65.42
2022-09-05T23:25:21.664Z,65.12
2022-09-05T23:27:23.316Z,64.75
2022-09-05T23:29:25.067Z,64.45
2022-09-05T23:31:26.986Z,64.33
2022-09-05T23:33:29.252Z,64.08
2022-09-05T23:35:30.854Z,64.05
2022-09-05T23:37:32.552Z,63.29
2022-09-05T23:39:34.319Z,63.41
2022-09-05T23:41:35.963Z,63.12
2022-09-05T23:43:40.707Z,62.95
2022-09-05T23:45:42.316Z,62.82
2022-09-05T23:47:43.961Z,62.54
2022-09-05T23:49:45.641Z,62.73
2022-09-05T23:51:47.296Z,62.51
2022-09-05T23:53:48.889Z,62.69
2022-09-05T23:55:50.538Z,62.63
2022-09-05T23:57:57.354Z,62.73
2022-09-05T23:59:58.990Z,62.87
